Time;durP1;ratioP1;P1;durP2;ratioP2;P2;SDS_P1;SDS_P2;PMS_P1;PMS_P2;Temp;Humidity;BMP_temperature;BMP_pressure;BME280_temperature;BME280_humidity;BME280_pressure;Samples;Min_cycle;Max_cycle;Signal;HPM_P1;HPM_P2
2022/01/06 00:01:44;;;;;;;;;;;20.60;43.20;;;;;;5100966;27;19932;-44
2022/01/06 00:04:11;;;;;;;;;;;20.60;43.10;;;;;;5095369;28;19945;-46
2022/01/06 00:06:40;;;;;;;;;;;20.60;43.10;;;;;;5096550;28;20434;-51
2022/01/06 00:09:09;;;;;;;;;;;20.60;43.10;;;;;;5098350;28;19983;-45
2022/01/06 00:11:38;;;;;;;;;;;20.60;43.10;;;;;;5098297;28;19928;-45
2022/01/06 00:14:12;;;;;;;;;;;20.60;43.00;;;;;;5115894;28;19981;-46
2022/01/06 00:16:45;;;;;;;;;;;20.60;43.00;;;;;;5097801;28;19976;-47
2022/01/06 00:24:41;;;;;;;;;;;20.60;43.00;;;;;;5096590;28;19989;-46
2022/01/06 00:27:08;;;;;;;;;;;20.60;42.90;;;;;;5097626;28;19923;-48
2022/01/06 00:29:36;;;;;;;;;;;20.50;42.90;;;;;;5095958;28;19963;-49
2022/01/06 00:32:05;;;;;;;;;;;20.60;42.90;;;;;;5098900;28;19943;-49
2022/01/06 00:34:32;;;;;;;;;;;20.50;42.90;;;;;;5095804;28;19924;-47
2022/01/06 00:37:00;;;;;;;;;;;20.50;42.90;;;;;;5095217;28;19924;-50
2022/01/06 00:39:28;;;;;;;;;;;20.50;42.80;;;;;;5116228;27;19920;-45
2022/01/06 00:41:58;;;;;;;;;;;20.50;42.80;;;;;;5115945;28;19924;-45
2022/01/06 00:44:25;;;;;;;;;;;20.50;42.80;;;;;;5096528;28;19924;-48
2022/01/06 00:46:53;;;;;;;;;;;20.50;42.80;;;;;;5094279;28;19931;-46
2022/01/06 00:49:20;;;;;;;;;;;20.50;42.80;;;;;;5097147;28;19935;-45
2022/01/06 00:51:47;;;;;;;;;;;20.50;42.70;;;;;;5095362;28;19980;-48
2022/01/06 00:54:14;;;;;;;;;;;20.50;42.70;;;;;;5103519;28;20346;-47
2022/01/06 00:56:41;;;;;;;;;;;20.50;42.70;;;;;;5097137;28;19931;-46
2022/01/06 00:59:07;;;;;;;;;;;20.50;42.70;;;;;;5100111;28;19946;-47
2022/01/06 01:01:34;;;;;;;;;;;20.50;42.70;;;;;;5110107;28;20421;-47
2022/01/06 01:04:02;;;;;;;;;;;20.50;42.70;;;;;;5105633;28;19927;-46
2022/01/06 01:06:29;;;;;;;;;;;20.50;42.70;;;;;;5094547;28;19950;-48
2022/01/06 01:08:56;;;;;;;;;;;20.50;42.70;;;;;;5111898;27;19927;-44
2022/01/06 01:11:23;;;;;;;;;;;20.50;42.60;;;;;;5095906;28;20323;-50
2022/01/06 01:13:56;;;;;;;;;;;20.50;42.60;;;;;;5097005;28;19931;-46
2022/01/06 01:16:26;;;;;;;;;;;20.50;43.20;;;;;;5112925;28;19924;-46
2022/01/06 01:18:57;;;;;;;;;;;20.50;42.60;;;;;;5097517;28;20046;-50
2022/01/06 01:21:27;;;;;;;;;;;20.50;42.60;;;;;;5092890;28;20392;-50
2022/01/06 01:23:54;;;;;;;;;;;20.50;42.50;;;;;;5093357;28;20022;-48
2022/01/06 01:26:21;;;;;;;;;;;20.50;42.50;;;;;;5098428;28;19928;-50
2022/01/06 01:28:47;;;;;;;;;;;20.50;42.50;;;;;;5096886;28;19924;-47
2022/01/06 01:31:25;;;;;;;;;;;20.50;42.50;;;;;;5098013;28;20676;-47
2022/01/06 01:33:53;;;;;;;;;;;20.50;42.50;;;;;;5097229;28;19969;-48
2022/01/06 01:36:19;;;;;;;;;;;20.50;42.50;;;;;;5092820;28;19951;-47
2022/01/06 01:38:48;;;;;;;;;;;20.50;42.50;;;;;;5096240;28;19932;-46
2022/01/06 01:41:15;;;;;;;;;;;20.50;42.40;;;;;;5101688;28;19981;-43
2022/01/06 01:43:41;;;;;;;;;;;20.50;42.40;;;;;;5096438;28;19924;-45
2022/01/06 01:46:13;;;;;;;;;;;20.50;42.40;;;;;;5097182;28;19928;-45
2022/01/06 01:48:48;;;;;;;;;;;20.50;42.40;;;;;;5096667;28;19931;-43
2022/01/06 01:51:15;;;;;;;;;;;20.50;42.40;;;;;;5098483;28;19978;-46
2022/01/06 01:53:42;;;;;;;;;;;20.50;42.40;;;;;;5095891;28;19928;-50
2022/01/06 01:56:10;;;;;;;;;;;20.50;42.40;;;;;;5099057;28;20026;-46
2022/01/06 01:58:37;;;;;;;;;;;20.50;42.40;;;;;;5097283;28;19950;-45
2022/01/06 02:01:04;;;;;;;;;;;20.50;42.40;;;;;;5119917;28;19935;-47
2022/01/06 02:06:40;;;;;;;;;;;20.50;42.30;;;;;;5096895;28;20054;-46
2022/01/06 02:09:07;;;;;;;;;;;20.50;42.30;;;;;;5076857;28;19946;-48
2022/01/06 02:11:36;;;;;;;;;;;20.50;42.30;;;;;;5077802;28;20371;-43
2022/01/06 02:14:05;;;;;;;;;;;20.50;42.30;;;;;;5078677;28;19959;-45
2022/01/06 02:16:32;;;;;;;;;;;20.50;42.30;;;;;;5087702;28;20380;-49
2022/01/06 02:18:59;;;;;;;;;;;20.50;42.20;;;;;;5115273;28;19932;-50
2022/01/06 02:21:27;;;;;;;;;;;20.50;42.20;;;;;;5098240;28;19927;-47
2022/01/06 02:23:57;;;;;;;;;;;20.50;42.20;;;;;;5100168;28;19950;-47
2022/01/06 02:26:24;;;;;;;;;;;20.50;42.20;;;;;;5116377;28;19928;-52
2022/01/06 02:28:51;;;;;;;;;;;20.50;42.20;;;;;;5099698;28;19963;-49
2022/01/06 02:31:18;;;;;;;;;;;20.50;42.20;;;;;;5101835;28;19930;-42
2022/01/06 02:33:45;;;;;;;;;;;20.40;42.10;;;;;;5096076;28;19928;-46
2022/01/06 02:36:12;;;;;;;;;;;20.50;42.20;;;;;;5099620;28;19924;-43
2022/01/06 02:38:40;;;;;;;;;;;20.50;42.20;;;;;;5099714;28;19943;-47
2022/01/06 02:41:07;;;;;;;;;;;20.50;42.20;;;;;;5098881;28;19927;-47
2022/01/06 02:43:35;;;;;;;;;;;20.40;42.10;;;;;;5115901;28;19987;-47
2022/01/06 02:46:02;;;;;;;;;;;20.50;42.20;;;;;;5101959;28;19923;-45
2022/01/06 02:48:29;;;;;;;;;;;20.40;42.10;;;;;;5116248;28;19989;-45
2022/01/06 02:50:56;;;;;;;;;;;20.40;42.10;;;;;;5101020;28;19928;-43
2022/01/06 02:53:23;;;;;;;;;;;20.40;42.10;;;;;;5098603;28;19957;-46
2022/01/06 02:55:53;;;;;;;;;;;20.40;42.00;;;;;;5101264;28;19920;-51
2022/01/06 02:58:20;;;;;;;;;;;20.40;42.00;;;;;;5102501;28;19932;-47
2022/01/06 03:00:47;;;;;;;;;;;20.40;42.00;;;;;;5101908;28;20300;-44
2022/01/06 03:03:14;;;;;;;;;;;20.40;42.00;;;;;;5102482;28;19991;-46
2022/01/06 03:05:41;;;;;;;;;;;20.40;42.00;;;;;;5101981;28;19963;-50
2022/01/06 03:08:08;;;;;;;;;;;20.40;42.00;;;;;;5094221;28;19928;-50
2022/01/06 03:10:41;;;;;;;;;;;20.40;41.90;;;;;;5102280;28;19931;-44
2022/01/06 03:13:09;;;;;;;;;;;20.40;41.90;;;;;;5100045;28;19924;-45
2022/01/06 03:15:37;;;;;;;;;;;20.40;41.90;;;;;;5101650;28;20614;-49
2022/01/06 03:18:04;;;;;;;;;;;20.40;41.90;;;;;;5103418;28;19963;-46
2022/01/06 03:20:31;;;;;;;;;;;20.40;41.90;;;;;;5101371;28;19949;-44
2022/01/06 03:22:58;;;;;;;;;;;20.40;41.90;;;;;;5099339;27;19931;-46
2022/01/06 03:25:25;;;;;;;;;;;20.40;41.90;;;;;;5098541;28;19927;-47
2022/01/06 03:27:54;;;;;;;;;;;20.40;41.80;;;;;;5100412;28;19924;-49
2022/01/06 03:30:23;;;;;;;;;;;20.40;41.80;;;;;;5101376;28;19991;-48
2022/01/06 03:32:49;;;;;;;;;;;20.40;41.80;;;;;;5100453;28;19924;-45
2022/01/06 03:35:17;;;;;;;;;;;20.40;41.80;;;;;;5099903;28;19924;-46
2022/01/06 03:37:44;;;;;;;;;;;20.40;41.80;;;;;;5097809;28;19927;-47
2022/01/06 03:40:11;;;;;;;;;;;20.40;41.70;;;;;;5097347;28;19930;-48
2022/01/06 03:42:39;;;;;;;;;;;20.40;41.80;;;;;;5114574;28;20270;-44
2022/01/06 03:45:06;;;;;;;;;;;20.40;41.70;;;;;;5087366;28;19927;-47
2022/01/06 03:47:34;;;;;;;;;;;20.40;41.70;;;;;;5119638;28;19924;-46
2022/01/06 03:50:01;;;;;;;;;;;20.40;41.70;;;;;;5099298;28;20326;-46
2022/01/06 03:52:28;;;;;;;;;;;20.40;41.70;;;;;;5100744;28;19931;-51
2022/01/06 03:54:55;;;;;;;;;;;20.40;41.70;;;;;;5099390;28;19976;-44
2022/01/06 03:57:22;;;;;;;;;;;20.40;41.60;;;;;;5119988;28;20002;-46
2022/01/06 03:59:49;;;;;;;;;;;20.40;41.70;;;;;;5101166;28;20372;-44
2022/01/06 04:02:15;;;;;;;;;;;20.40;41.60;;;;;;5099570;28;19928;-43
2022/01/06 04:04:44;;;;;;;;;;;20.40;41.60;;;;;;5083093;28;19974;-49
2022/01/06 04:07:10;;;;;;;;;;;20.40;41.60;;;;;;5098878;28;19924;-48
2022/01/06 04:09:37;;;;;;;;;;;20.40;41.60;;;;;;5099149;28;19930;-43
2022/01/06 04:12:08;;;;;;;;;;;20.40;41.60;;;;;;5100314;28;19955;-42
2022/01/06 04:14:35;;;;;;;;;;;20.40;41.60;;;;;;5119517;28;19940;-43
2022/01/06 04:17:06;;;;;;;;;;;20.40;41.60;;;;;;5099421;28;19928;-41
2022/01/06 04:19:34;;;;;;;;;;;20.40;41.50;;;;;;5099725;28;19935;-44
2022/01/06 04:22:02;;;;;;;;;;;20.40;41.50;;;;;;5117688;28;19928;-42
2022/01/06 04:24:29;;;;;;;;;;;20.40;41.50;;;;;;5099324;28;20014;-42
2022/01/06 04:26:56;;;;;;;;;;;20.40;41.50;;;;;;5096950;28;20330;-48
2022/01/06 04:29:23;;;;;;;;;;;20.40;41.50;;;;;;5100367;28;19924;-51
2022/01/06 04:31:50;;;;;;;;;;;20.40;41.50;;;;;;5099820;28;19934;-44
2022/01/06 04:34:17;;;;;;;;;;;20.40;41.40;;;;;;5100446;28;20189;-45
2022/01/06 04:36:49;;;;;;;;;;;20.40;41.40;;;;;;5099314;28;19994;-45
2022/01/06 04:39:17;;;;;;;;;;;20.40;41.40;;;;;;5094343;28;20441;-44
2022/01/06 04:41:47;;;;;;;;;;;20.40;41.90;;;;;;5099047;28;19959;-46
2022/01/06 04:44:14;;;;;;;;;;;20.40;41.40;;;;;;5097796;28;19977;-43
2022/01/06 04:46:41;;;;;;;;;;;20.40;41.30;;;;;;5118036;28;19969;-45
2022/01/06 04:49:08;;;;;;;;;;;20.40;41.30;;;;;;5118063;28;19923;-43
2022/01/06 04:51:35;;;;;;;;;;;20.40;41.30;;;;;;5099985;28;19930;-45
2022/01/06 04:54:02;;;;;;;;;;;20.40;41.20;;;;;;5114512;28;19930;-45
2022/01/06 04:56:35;;;;;;;;;;;20.40;41.20;;;;;;5099686;28;19949;-44
2022/01/06 04:59:02;;;;;;;;;;;20.40;41.20;;;;;;5099971;28;19931;-45
2022/01/06 05:01:29;;;;;;;;;;;20.40;41.20;;;;;;5095959;28;19928;-44
2022/01/06 05:03:56;;;;;;;;;;;20.30;41.10;;;;;;5118517;28;20312;-44
2022/01/06 05:06:23;;;;;;;;;;;20.30;41.10;;;;;;5099605;28;19927;-43
2022/01/06 05:08:50;;;;;;;;;;;20.40;41.20;;;;;;5099529;28;20490;-43
2022/01/06 05:11:17;;;;;;;;;;;20.30;41.10;;;;;;5100274;28;19928;-42
2022/01/06 05:13:46;;;;;;;;;;;20.30;41.10;;;;;;5098615;28;19928;-45
2022/01/06 05:16:13;;;;;;;;;;;20.30;41.10;;;;;;5099817;28;20013;-45
2022/01/06 05:18:40;;;;;;;;;;;20.30;41.10;;;;;;5097751;28;19924;-43
2022/01/06 05:21:07;;;;;;;;;;;20.30;41.00;;;;;;5117495;28;19927;-44
2022/01/06 05:23:33;;;;;;;;;;;20.30;41.00;;;;;;5102212;28;19927;-46
2022/01/06 05:26:00;;;;;;;;;;;20.30;41.00;;;;;;5099176;28;19931;-45
2022/01/06 05:28:28;;;;;;;;;;;20.30;41.00;;;;;;5100346;28;19928;-51
2022/01/06 05:30:56;;;;;;;;;;;20.30;41.00;;;;;;5099942;28;19935;-44
2022/01/06 05:33:24;;;;;;;;;;;20.30;41.00;;;;;;5098171;28;19928;-42
2022/01/06 05:35:51;;;;;;;;;;;20.30;40.90;;;;;;5099516;28;19931;-46
2022/01/06 05:38:18;;;;;;;;;;;20.30;40.90;;;;;;5096076;28;20022;-44
2022/01/06 05:40:45;;;;;;;;;;;20.30;40.90;;;;;;5096310;28;19924;-48
2022/01/06 05:43:12;;;;;;;;;;;20.30;40.90;;;;;;5097343;28;19980;-45
2022/01/06 05:45:38;;;;;;;;;;;20.30;40.90;;;;;;5094308;28;19923;-45
2022/01/06 05:48:07;;;;;;;;;;;20.30;40.90;;;;;;5096163;28;20319;-44
2022/01/06 05:50:34;;;;;;;;;;;20.30;40.90;;;;;;5099659;28;19923;-47
2022/01/06 05:53:03;;;;;;;;;;;20.30;40.80;;;;;;5118246;28;19928;-44
2022/01/06 05:55:31;;;;;;;;;;;20.30;40.90;;;;;;5099673;28;19994;-43
2022/01/06 05:57:58;;;;;;;;;;;20.30;40.80;;;;;;5102757;28;19963;-45
2022/01/06 06:00:25;;;;;;;;;;;20.30;40.80;;;;;;5100243;28;19931;-43
2022/01/06 06:02:53;;;;;;;;;;;20.30;40.80;;;;;;5100254;28;20315;-44
2022/01/06 06:05:24;;;;;;;;;;;20.30;40.80;;;;;;5102184;28;19931;-48
2022/01/06 06:07:51;;;;;;;;;;;20.30;40.80;;;;;;5117786;28;19987;-48
2022/01/06 06:10:18;;;;;;;;;;;20.30;40.80;;;;;;5101498;28;19927;-47
2022/01/06 06:12:45;;;;;;;;;;;20.30;40.80;;;;;;5120687;28;19928;-46
2022/01/06 06:15:12;;;;;;;;;;;20.30;40.80;;;;;;5103285;28;20322;-49
2022/01/06 06:17:38;;;;;;;;;;;20.30;40.70;;;;;;5104250;28;19977;-46
2022/01/06 06:20:06;;;;;;;;;;;20.30;40.70;;;;;;5101184;28;19978;-44
2022/01/06 06:22:35;;;;;;;;;;;20.30;40.70;;;;;;5120988;28;19924;-44
2022/01/06 06:25:02;;;;;;;;;;;20.30;40.70;;;;;;5121601;28;19981;-48
2022/01/06 06:27:29;;;;;;;;;;;20.30;40.70;;;;;;5117958;28;19924;-45
2022/01/06 06:29:56;;;;;;;;;;;20.30;40.70;;;;;;5121163;28;19924;-49
2022/01/06 06:32:22;;;;;;;;;;;20.30;40.60;;;;;;5120626;28;20372;-48
2022/01/06 06:34:50;;;;;;;;;;;20.30;40.70;;;;;;5099015;28;20351;-44
2022/01/06 06:37:16;;;;;;;;;;;20.30;40.70;;;;;;5095936;28;19939;-48
2022/01/06 06:39:45;;;;;;;;;;;20.30;40.60;;;;;;5098157;28;19924;-47
2022/01/06 06:42:12;;;;;;;;;;;20.30;40.70;;;;;;5114843;28;19923;-51
2022/01/06 06:44:38;;;;;;;;;;;20.30;40.60;;;;;;5118494;28;19930;-43
2022/01/06 06:47:05;;;;;;;;;;;20.30;40.60;;;;;;5120834;28;19923;-44
2022/01/06 06:49:32;;;;;;;;;;;20.30;40.60;;;;;;5119029;28;19930;-43
2022/01/06 06:51:59;;;;;;;;;;;20.30;40.60;;;;;;5120251;28;19936;-51
2022/01/06 06:54:27;;;;;;;;;;;20.30;40.60;;;;;;5119678;28;19942;-48
2022/01/06 06:56:55;;;;;;;;;;;20.30;40.60;;;;;;5101805;28;19928;-46
2022/01/06 06:59:22;;;;;;;;;;;20.30;40.60;;;;;;5116599;28;19928;-43
2022/01/06 07:01:49;;;;;;;;;;;20.30;40.60;;;;;;5101792;28;19924;-45
2022/01/06 07:04:15;;;;;;;;;;;20.30;40.60;;;;;;5117728;28;20427;-48
2022/01/06 07:06:42;;;;;;;;;;;20.30;40.60;;;;;;5098516;28;19935;-51
2022/01/06 07:09:09;;;;;;;;;;;20.30;40.60;;;;;;5097645;28;19927;-44
2022/01/06 07:11:36;;;;;;;;;;;20.30;40.60;;;;;;5116509;28;20022;-43
2022/01/06 07:14:05;;;;;;;;;;;20.30;40.60;;;;;;5100137;28;19924;-46
2022/01/06 07:16:32;;;;;;;;;;;20.30;40.50;;;;;;5096971;28;19924;-49
2022/01/06 07:19:03;;;;;;;;;;;20.30;40.60;;;;;;5117991;28;19920;-45
2022/01/06 07:21:29;;;;;;;;;;;20.30;40.50;;;;;;5096845;28;19945;-42
2022/01/06 07:23:56;;;;;;;;;;;20.30;40.50;;;;;;5115167;28;19923;-45
2022/01/06 07:26:23;;;;;;;;;;;20.30;40.50;;;;;;5116084;28;19983;-49
2022/01/06 07:28:49;;;;;;;;;;;20.30;40.50;;;;;;5103002;28;19935;-47
2022/01/06 07:31:18;;;;;;;;;;;20.30;40.50;;;;;;5095907;28;19935;-50
2022/01/06 07:33:44;;;;;;;;;;;20.30;40.50;;;;;;5090819;28;19939;-47
2022/01/06 07:36:11;;;;;;;;;;;20.30;40.50;;;;;;5095766;28;19931;-47
2022/01/06 07:38:38;;;;;;;;;;;20.30;40.40;;;;;;5090734;28;20487;-47
2022/01/06 07:41:05;;;;;;;;;;;20.30;40.40;;;;;;5099091;28;19920;-51
2022/01/06 07:43:31;;;;;;;;;;;20.30;40.40;;;;;;5098354;28;19938;-50
2022/01/06 07:45:59;;;;;;;;;;;20.30;40.50;;;;;;5098193;28;19938;-48
2022/01/06 07:48:37;;;;;;;;;;;20.30;40.40;;;;;;5097373;28;19973;-47
2022/01/06 07:51:03;;;;;;;;;;;20.30;40.40;;;;;;5098885;28;19928;-50
2022/01/06 07:53:30;;;;;;;;;;;20.30;40.40;;;;;;5099007;28;19928;-44
2022/01/06 07:55:57;;;;;;;;;;;20.30;40.40;;;;;;5093157;28;20015;-54
2022/01/06 07:58:25;;;;;;;;;;;20.30;40.30;;;;;;5096462;28;19923;-50
2022/01/06 08:00:52;;;;;;;;;;;20.30;39.70;;;;;;5095432;28;20267;-51
2022/01/06 08:03:18;;;;;;;;;;;20.30;38.70;;;;;;5095202;28;19927;-56
2022/01/06 08:05:48;;;;;;;;;;;20.20;37.90;;;;;;5096098;28;19923;-52
2022/01/06 08:08:15;;;;;;;;;;;20.20;37.40;;;;;;5096233;28;19962;-50
2022/01/06 08:10:42;;;;;;;;;;;20.10;37.10;;;;;;5091639;28;19928;-48
2022/01/06 08:13:08;;;;;;;;;;;20.10;36.90;;;;;;5087830;28;19959;-45
2022/01/06 08:15:35;;;;;;;;;;;20.10;36.40;;;;;;5110560;28;19927;-49
2022/01/06 08:18:02;;;;;;;;;;;20.00;36.70;;;;;;5094409;28;20023;-43
2022/01/06 08:20:29;;;;;;;;;;;20.00;37.40;;;;;;5103931;28;20550;-46
2022/01/06 08:22:57;;;;;;;;;;;20.00;37.70;;;;;;5093004;28;19928;-49
2022/01/06 08:25:24;;;;;;;;;;;20.00;38.00;;;;;;5094486;28;19928;-45
2022/01/06 08:27:51;;;;;;;;;;;20.00;38.30;;;;;;5091947;28;19958;-48
2022/01/06 08:30:17;;;;;;;;;;;20.10;38.60;;;;;;5075501;28;20364;-44
2022/01/06 08:32:44;;;;;;;;;;;20.10;38.70;;;;;;5090403;28;19928;-45
2022/01/06 08:35:14;;;;;;;;;;;20.10;38.80;;;;;;5098358;28;19959;-44
2022/01/06 08:37:41;;;;;;;;;;;20.10;39.00;;;;;;5107260;28;19924;-43
2022/01/06 08:40:10;;;;;;;;;;;20.10;39.00;;;;;;5088566;28;19958;-44
2022/01/06 08:42:37;;;;;;;;;;;20.10;39.10;;;;;;5080931;28;19958;-43
2022/01/06 08:45:04;;;;;;;;;;;20.20;39.20;;;;;;5084399;28;20397;-43
2022/01/06 08:47:31;;;;;;;;;;;20.20;39.30;;;;;;5087655;28;19977;-43
2022/01/06 08:49:58;;;;;;;;;;;20.20;39.30;;;;;;5087687;28;19939;-49
2022/01/06 08:52:24;;;;;;;;;;;20.20;39.40;;;;;;5089167;28;19930;-46
2022/01/06 08:54:51;;;;;;;;;;;20.20;39.50;;;;;;5089309;28;19928;-47
2022/01/06 08:57:21;;;;;;;;;;;20.20;39.50;;;;;;5090579;28;19924;-49
2022/01/06 08:59:48;;;;;;;;;;;20.20;39.50;;;;;;5089878;28;19927;-48
2022/01/06 09:02:15;;;;;;;;;;;20.20;39.60;;;;;;5087035;28;20403;-43
2022/01/06 09:04:42;;;;;;;;;;;20.20;39.60;;;;;;5082854;28;20003;-43
2022/01/06 09:07:09;;;;;;;;;;;20.20;39.60;;;;;;5089250;28;19930;-49
2022/01/06 09:09:36;;;;;;;;;;;20.20;39.70;;;;;;5091601;28;19924;-44
2022/01/06 09:12:05;;;;;;;;;;;20.20;39.70;;;;;;5107655;28;20364;-46
2022/01/06 09:14:33;;;;;;;;;;;20.20;39.80;;;;;;5092784;28;20018;-46
2022/01/06 09:17:00;;;;;;;;;;;20.20;39.80;;;;;;5095517;28;20376;-45
2022/01/06 09:19:27;;;;;;;;;;;20.30;39.90;;;;;;5094339;28;19965;-44
2022/01/06 09:21:54;;;;;;;;;;;20.30;40.00;;;;;;5095914;28;20038;-47
2022/01/06 09:24:21;;;;;;;;;;;20.30;40.00;;;;;;5088117;28;19935;-49
2022/01/06 09:26:48;;;;;;;;;;;20.30;40.00;;;;;;5097832;28;20041;-46
2022/01/06 09:29:14;;;;;;;;;;;20.30;40.00;;;;;;5092736;28;19924;-45
2022/01/06 09:31:43;;;;;;;;;;;20.30;40.00;;;;;;5097079;28;19928;-50
2022/01/06 09:34:09;;;;;;;;;;;20.30;40.10;;;;;;5096998;28;19966;-48
2022/01/06 09:36:37;;;;;;;;;;;20.30;40.10;;;;;;5094792;28;19924;-47
2022/01/06 09:39:04;;;;;;;;;;;20.30;40.10;;;;;;5116347;28;19928;-48
2022/01/06 09:41:31;;;;;;;;;;;20.30;40.10;;;;;;5095266;28;20461;-48
2022/01/06 09:44:00;;;;;;;;;;;20.30;40.20;;;;;;5103265;28;19941;-45
2022/01/06 09:46:27;;;;;;;;;;;20.30;40.20;;;;;;5093700;28;19970;-47
2022/01/06 09:48:57;;;;;;;;;;;20.30;40.20;;;;;;5117065;28;20007;-49
2022/01/06 09:51:24;;;;;;;;;;;20.30;40.30;;;;;;5095537;28;20149;-46
2022/01/06 09:53:52;;;;;;;;;;;20.30;40.30;;;;;;5095433;28;19932;-44
2022/01/06 09:56:19;;;;;;;;;;;20.30;40.30;;;;;;5094967;28;20002;-49
2022/01/06 09:58:46;;;;;;;;;;;20.30;40.60;;;;;;5094729;28;20641;-47
2022/01/06 10:01:12;;;;;;;;;;;20.40;40.40;;;;;;5093827;28;20294;-49
2022/01/06 10:03:41;;;;;;;;;;;20.30;40.30;;;;;;5113870;28;19931;-49
2022/01/06 10:06:15;;;;;;;;;;;20.30;40.40;;;;;;5094125;28;19930;-42
2022/01/06 10:08:42;;;;;;;;;;;20.30;40.40;;;;;;5094803;28;20364;-46
2022/01/06 10:11:13;;;;;;;;;;;20.40;40.50;;;;;;5115246;28;19924;-50
2022/01/06 10:13:40;;;;;;;;;;;20.40;40.50;;;;;;5096674;28;19985;-49
2022/01/06 10:16:17;;;;;;;;;;;20.40;40.50;;;;;;5114254;28;19934;-45
2022/01/06 10:18:54;;;;;;;;;;;20.40;40.60;;;;;;5090374;28;19924;-45
2022/01/06 10:21:22;;;;;;;;;;;20.40;40.60;;;;;;5097112;28;19981;-53
2022/01/06 10:23:58;;;;;;;;;;;20.40;40.60;;;;;;5114174;28;19990;-46
2022/01/06 10:26:24;;;;;;;;;;;20.40;40.60;;;;;;5097322;28;19972;-42
2022/01/06 10:28:51;;;;;;;;;;;20.40;40.60;;;;;;5097636;28;20381;-41
2022/01/06 10:31:22;;;;;;;;;;;20.40;40.60;;;;;;5117102;28;19985;-50
2022/01/06 10:33:49;;;;;;;;;;;20.40;40.70;;;;;;5114481;28;19934;-48
2022/01/06 10:36:16;;;;;;;;;;;20.40;40.70;;;;;;5118693;28;19930;-45
2022/01/06 10:38:52;;;;;;;;;;;20.40;40.70;;;;;;5101416;28;19949;-43
2022/01/06 10:41:19;;;;;;;;;;;20.40;40.80;;;;;;5087367;28;20283;-57
2022/01/06 10:43:49;;;;;;;;;;;20.40;40.80;;;;;;5112919;28;19924;-50
2022/01/06 10:46:16;;;;;;;;;;;20.50;40.80;;;;;;5085300;28;19998;-47
2022/01/06 10:48:44;;;;;;;;;;;20.50;40.50;;;;;;5096426;28;19923;-47
2022/01/06 10:51:11;;;;;;;;;;;20.40;40.30;;;;;;5096548;28;19954;-49
2022/01/06 10:53:48;;;;;;;;;;;20.40;40.70;;;;;;5094363;28;20376;-50
2022/01/06 10:56:17;;;;;;;;;;;20.40;40.00;;;;;;5114933;28;20429;-46
2022/01/06 10:58:44;;;;;;;;;;;20.40;39.80;;;;;;5092538;28;19973;-54
2022/01/06 11:01:16;;;;;;;;;;;20.40;39.60;;;;;;5084591;28;19928;-51
2022/01/06 11:03:43;;;;;;;;;;;20.40;39.30;;;;;;5094493;28;19927;-49
2022/01/06 11:06:10;;;;;;;;;;;20.40;39.00;;;;;;5096045;28;19928;-46
2022/01/06 11:08:39;;;;;;;;;;;20.40;38.70;;;;;;5115091;28;19970;-50
2022/01/06 11:11:27;;;;;;;;;;;20.30;38.50;;;;;;5115469;28;20376;-52
2022/01/06 11:13:54;;;;;;;;;;;20.30;38.20;;;;;;5094223;28;19928;-55
2022/01/06 11:16:21;;;;;;;;;;;20.30;38.10;;;;;;5096503;28;19935;-47
2022/01/06 11:18:49;;;;;;;;;;;20.30;38.00;;;;;;5109788;28;19924;-49
2022/01/06 11:21:17;;;;;;;;;;;20.30;38.00;;;;;;5079607;28;19931;-53
2022/01/06 11:23:44;;;;;;;;;;;20.20;37.90;;;;;;5080444;28;19928;-51
2022/01/06 11:26:13;;;;;;;;;;;20.30;38.00;;;;;;5076377;28;19932;-54
2022/01/06 11:28:40;;;;;;;;;;;20.20;37.70;;;;;;5086653;28;19965;-51
2022/01/06 11:31:13;;;;;;;;;;;20.20;37.70;;;;;;5116597;27;19991;-49
2022/01/06 11:33:40;;;;;;;;;;;20.20;37.70;;;;;;5094972;28;19924;-58
2022/01/06 11:36:07;;;;;;;;;;;20.20;37.70;;;;;;5095127;28;20303;-53
2022/01/06 11:38:34;;;;;;;;;;;20.20;37.60;;;;;;5094239;28;19924;-50
2022/01/06 11:41:06;;;;;;;;;;;20.20;37.50;;;;;;5093383;28;19924;-51
2022/01/06 11:43:37;;;;;;;;;;;20.20;37.50;;;;;;5111431;28;19962;-54
2022/01/06 11:46:04;;;;;;;;;;;20.10;37.40;;;;;;5080448;28;19924;-50
2022/01/06 11:48:33;;;;;;;;;;;20.10;37.40;;;;;;5114851;28;19928;-48
2022/01/06 11:51:00;;;;;;;;;;;20.10;37.40;;;;;;5114737;28;19923;-47
2022/01/06 11:53:30;;;;;;;;;;;20.10;37.30;;;;;;5096546;28;19924;-46
2022/01/06 11:55:58;;;;;;;;;;;20.10;37.20;;;;;;5109877;28;19946;-54
2022/01/06 11:58:25;;;;;;;;;;;20.10;37.10;;;;;;5091724;28;19928;-48
2022/01/06 12:00:57;;;;;;;;;;;20.10;37.10;;;;;;5107973;28;19966;-54
2022/01/06 12:03:33;;;;;;;;;;;20.10;36.90;;;;;;5090551;28;19930;-52
2022/01/06 12:06:04;;;;;;;;;;;20.10;36.90;;;;;;5108802;28;19963;-51
2022/01/06 12:08:34;;;;;;;;;;;20.10;36.90;;;;;;5096536;28;20661;-53
2022/01/06 12:11:01;;;;;;;;;;;20.00;36.80;;;;;;5089511;28;20071;-47
2022/01/06 12:13:28;;;;;;;;;;;20.00;36.80;;;;;;5082119;28;19927;-48
2022/01/06 12:15:57;;;;;;;;;;;20.00;36.70;;;;;;5079482;28;19924;-49
2022/01/06 12:18:24;;;;;;;;;;;20.00;36.70;;;;;;5115776;28;19924;-50
2022/01/06 12:20:51;;;;;;;;;;;20.00;36.70;;;;;;5092540;28;19932;-46
2022/01/06 12:23:18;;;;;;;;;;;20.00;36.80;;;;;;5112882;28;19924;-47
2022/01/06 12:25:47;;;;;;;;;;;20.00;36.70;;;;;;5093457;28;20266;-49
2022/01/06 12:28:14;;;;;;;;;;;20.00;36.60;;;;;;5111045;28;19977;-54
2022/01/06 12:30:41;;;;;;;;;;;20.00;36.70;;;;;;5095902;28;19955;-50
2022/01/06 12:33:09;;;;;;;;;;;20.00;36.70;;;;;;5113945;28;19954;-49
2022/01/06 12:35:37;;;;;;;;;;;20.00;36.70;;;;;;5109297;28;20252;-54
2022/01/06 12:38:04;;;;;;;;;;;20.00;36.80;;;;;;5114565;28;19967;-54
2022/01/06 12:40:34;;;;;;;;;;;20.00;36.80;;;;;;5114572;28;19939;-51
2022/01/06 12:43:01;;;;;;;;;;;20.00;36.80;;;;;;5095608;28;19928;-50
2022/01/06 12:45:28;;;;;;;;;;;20.00;36.70;;;;;;5109151;28;20034;-46
2022/01/06 12:47:54;;;;;;;;;;;20.00;36.70;;;;;;5095900;28;19924;-50
2022/01/06 12:50:23;;;;;;;;;;;20.00;36.70;;;;;;5095654;28;19935;-54
2022/01/06 12:52:50;;;;;;;;;;;19.90;36.50;;;;;;5094804;28;19924;-51
2022/01/06 12:55:16;;;;;;;;;;;19.90;36.40;;;;;;5092369;28;19927;-51
2022/01/06 12:57:50;;;;;;;;;;;19.90;36.50;;;;;;5096002;28;19932;-49
2022/01/06 13:00:18;;;;;;;;;;;19.90;36.40;;;;;;5107734;28;20006;-53
2022/01/06 13:02:56;;;;;;;;;;;19.90;36.40;;;;;;5094030;28;19967;-49
2022/01/06 13:05:24;;;;;;;;;;;19.90;36.10;;;;;;5094859;28;19991;-56
2022/01/06 13:08:01;;;;;;;;;;;19.90;36.10;;;;;;5091166;28;20010;-51
2022/01/06 13:10:28;;;;;;;;;;;19.90;36.20;;;;;;5093975;28;19923;-49
2022/01/06 13:13:03;;;;;;;;;;;19.90;36.10;;;;;;5086971;28;19967;-52
2022/01/06 13:15:31;;;;;;;;;;;19.90;36.10;;;;;;5094618;28;19930;-49
2022/01/06 13:17:58;;;;;;;;;;;19.90;36.10;;;;;;5095575;28;19945;-49
2022/01/06 13:20:26;;;;;;;;;;;19.90;36.10;;;;;;5114064;28;19991;-53
2022/01/06 13:23:22;;;;;;;;;;;19.90;36.00;;;;;;5090983;28;20335;-55
2022/01/06 13:25:48;;;;;;;;;;;19.80;35.80;;;;;;5106289;28;19920;-52
2022/01/06 13:28:15;;;;;;;;;;;19.80;35.80;;;;;;5093416;28;19999;-52
2022/01/06 13:30:43;;;;;;;;;;;19.80;35.80;;;;;;5090364;28;19958;-51
2022/01/06 13:33:10;;;;;;;;;;;19.80;35.70;;;;;;5093936;28;20407;-53
2022/01/06 13:35:47;;;;;;;;;;;19.80;35.70;;;;;;5098903;28;19969;-52
2022/01/06 13:38:15;;;;;;;;;;;19.80;35.80;;;;;;5091078;28;19946;-54
2022/01/06 13:40:45;;;;;;;;;;;19.80;35.70;;;;;;5088656;28;19923;-51
2022/01/06 13:43:17;;;;;;;;;;;19.80;35.80;;;;;;5112587;28;19924;-51
2022/01/06 13:45:47;;;;;;;;;;;19.80;35.70;;;;;;5104064;28;19924;-52
2022/01/06 13:48:35;;;;;;;;;;;19.80;35.70;;;;;;5095058;28;19927;-54
2022/01/06 13:51:12;;;;;;;;;;;19.80;35.70;;;;;;5103909;28;19927;-51
2022/01/06 13:53:42;;;;;;;;;;;19.80;35.60;;;;;;5099941;28;19924;-50
2022/01/06 13:56:10;;;;;;;;;;;19.80;35.60;;;;;;5095568;28;19923;-51
2022/01/06 13:58:38;;;;;;;;;;;19.80;35.60;;;;;;5108552;28;19932;-52
2022/01/06 14:01:05;;;;;;;;;;;19.70;35.40;;;;;;5092252;28;20044;-50
2022/01/06 14:03:32;;;;;;;;;;;19.80;35.50;;;;;;5092576;28;19928;-47
2022/01/06 14:06:00;;;;;;;;;;;19.70;35.30;;;;;;5105884;28;19942;-51
2022/01/06 14:08:28;;;;;;;;;;;19.70;35.30;;;;;;5093128;28;19924;-51
2022/01/06 14:10:55;;;;;;;;;;;19.70;35.30;;;;;;5094460;28;19978;-50
2022/01/06 14:13:22;;;;;;;;;;;19.70;35.30;;;;;;5090186;28;19923;-48
2022/01/06 14:15:49;;;;;;;;;;;19.70;35.30;;;;;;5093926;28;20453;-47
2022/01/06 14:18:16;;;;;;;;;;;19.70;35.30;;;;;;5097040;28;19934;-55
2022/01/06 14:20:43;;;;;;;;;;;19.70;35.30;;;;;;5093760;28;19923;-52
2022/01/06 14:23:09;;;;;;;;;;;19.70;35.30;;;;;;5096531;28;19997;-50
2022/01/06 14:25:38;;;;;;;;;;;19.70;35.20;;;;;;5096579;28;20376;-55
2022/01/06 14:28:06;;;;;;;;;;;19.70;35.20;;;;;;5099254;28;20377;-51
2022/01/06 14:30:33;;;;;;;;;;;19.70;35.20;;;;;;5117297;28;19927;-51